Time;durP1;ratioP1;P1;durP2;ratioP2;P2;SDS_P1;SDS_P2;PMS_P1;PMS_P2;Temp;Humidity;BMP_temperature;BMP_pressure;BME280_temperature;BME280_humidity;BME280_pressure;Samples;Min_cycle;Max_cycle;Signal;HPM_P1;HPM_P2
2023/12/21 00:00:45;;;;;;;29.77;11.77;;;;;;;7.48;100.00;100672.44;5096546;28;20038;-90
2023/12/21 00:03:11;;;;;;;28.67;11.07;;;;;;;7.46;100.00;100679.91;5096442;28;20027;-90
2023/12/21 00:05:38;;;;;;;27.10;10.67;;;;;;;7.48;100.00;100666.22;5096090;28;20057;-88
2023/12/21 00:08:13;;;;;;;35.70;11.15;;;;;;;7.47;100.00;100670.78;5096608;28;20054;-89
2023/12/21 00:10:44;;;;;;;26.20;10.10;;;;;;;7.48;100.00;100640.03;5096483;28;20027;-89
2023/12/21 00:13:09;;;;;;;23.25;10.05;;;;;;;7.46;100.00;100634.03;5097166;28;20427;-89
2023/12/21 00:15:34;;;;;;;27.90;9.80;;;;;;;7.49;100.00;100632.81;5114288;28;20118;-89
2023/12/21 00:18:00;;;;;;;29.73;10.10;;;;;;;7.49;100.00;100622.81;5096095;28;20483;-89
2023/12/21 00:20:28;;;;;;;32.27;10.77;;;;;;;7.48;100.00;100623.03;5114202;28;20027;-88
2023/12/21 00:22:56;;;;;;;35.13;10.75;;;;;;;7.49;100.00;100622.00;5079678;28;20076;-89
2023/12/21 00:25:26;;;;;;;32.08;11.63;;;;;;;7.47;100.00;100619.50;5096419;28;20036;-88
2023/12/21 00:27:51;;;;;;;24.10;10.18;;;;;;;7.46;100.00;100606.22;5114356;28;20038;-89
2023/12/21 00:30:17;;;;;;;37.17;11.27;;;;;;;7.47;100.00;100605.16;5079251;28;20027;-88
2023/12/21 00:32:42;;;;;;;37.40;14.53;;;;;;;7.47;100.00;100586.25;5095912;28;20019;-88
2023/12/21 00:35:08;;;;;;;32.15;12.75;;;;;;;7.45;100.00;100591.84;5114224;28;20037;-88
2023/12/21 00:37:36;;;;;;;35.53;11.90;;;;;;;7.45;100.00;100608.06;5095317;28;20039;-88
2023/12/21 00:40:03;;;;;;;38.25;13.13;;;;;;;7.44;100.00;100590.22;5096561;28;20066;-89
2023/12/21 00:42:33;;;;;;;30.63;12.90;;;;;;;7.45;100.00;100591.84;5114011;28;20031;-89
2023/12/21 00:45:01;;;;;;;37.55;14.00;;;;;;;7.45;100.00;100581.06;5095526;28;20131;-88
2023/12/21 00:47:26;;;;;;;33.10;12.37;;;;;;;7.46;100.00;100571.13;5113668;28;20028;-89
2023/12/21 00:49:54;;;;;;;38.22;12.57;;;;;;;7.44;100.00;100559.66;5112859;28;20101;-88
2023/12/21 00:52:19;;;;;;;40.30;13.73;;;;;;;7.45;100.00;100554.06;5096423;28;20035;-89
2023/12/21 00:54:45;;;;;;;40.55;13.98;;;;;;;7.44;100.00;100559.66;5095932;28;20451;-90
2023/12/21 00:57:13;;;;;;;35.13;13.97;;;;;;;7.44;100.00;100554.28;5095582;28;20039;-89
2023/12/21 00:59:38;;;;;;;40.33;14.43;;;;;;;7.44;100.00;100538.06;5114310;28;20102;-89
2023/12/21 01:02:03;;;;;;;39.33;14.23;;;;;;;7.45;100.00;100542.44;5095393;28;20221;-89
2023/12/21 01:04:38;;;;;;;41.67;14.93;;;;;;;7.46;100.00;100536.03;5095813;28;20032;-89
2023/12/21 01:07:07;;;;;;;37.83;13.65;;;;;;;7.46;100.00;100530.63;5096401;28;20479;-89
2023/12/21 01:09:35;;;;;;;33.80;13.20;;;;;;;7.44;100.00;100525.44;5095443;28;20059;-89
2023/12/21 01:12:01;;;;;;;37.45;13.65;;;;;;;7.44;100.00;100516.47;5095391;28;20467;-89
2023/12/21 01:14:29;;;;;;;37.10;14.57;;;;;;;7.47;100.00;100519.63;5096209;28;20020;-89
2023/12/21 01:16:55;;;;;;;32.60;13.18;;;;;;;7.45;100.00;100505.47;5078931;28;20039;-89
2023/12/21 01:19:23;;;;;;;33.47;12.60;;;;;;;7.47;100.00;100507.97;5113941;28;20482;-89
2023/12/21 01:21:48;;;;;;;33.40;11.82;;;;;;;7.47;100.00;100499.88;5095322;28;20023;-89
2023/12/21 01:24:14;;;;;;;35.03;10.43;;;;;;;7.47;100.00;100514.22;5099446;28;20115;-89
2023/12/21 01:26:40;;;;;;;37.25;11.93;;;;;;;7.48;100.00;100523.16;5100442;28;20039;-89
2023/12/21 01:29:11;;;;;;;40.93;12.67;;;;;;;7.50;100.00;100508.41;5117631;28;20023;-89
2023/12/21 01:31:36;;;;;;;28.88;11.90;;;;;;;7.49;100.00;100508.63;5098866;28;20130;-89
2023/12/21 01:34:05;;;;;;;29.43;11.13;;;;;;;7.50;100.00;100510.25;5117359;28;20102;-89
2023/12/21 01:36:30;;;;;;;35.22;12.05;;;;;;;7.51;100.00;100504.69;5117750;28;20372;-89
2023/12/21 01:38:58;;;;;;;31.52;11.18;;;;;;;7.48;100.00;100478.06;5100088;28;20119;-89
2023/12/21 01:41:29;;;;;;;32.70;12.38;;;;;;;7.48;100.00;100471.84;5067239;28;20036;-89
2023/12/21 01:43:56;;;;;;;31.80;12.95;;;;;;;7.49;100.00;100482.44;5099079;28;20040;-90
2023/12/21 01:46:27;;;;;;;30.05;12.55;;;;;;;7.49;100.00;100479.75;5099768;28;20032;-89
2023/12/21 01:48:53;;;;;;;41.72;14.77;;;;;;;7.51;100.00;100483.09;5117635;28;20032;-89
2023/12/21 01:51:20;;;;;;;33.07;12.67;;;;;;;7.51;100.00;100476.84;5100007;28;20027;-88
2023/12/21 01:53:47;;;;;;;34.83;13.52;;;;;;;7.51;100.00;100463.34;5117144;28;20023;-90
2023/12/21 01:56:13;;;;;;;44.55;14.00;;;;;;;7.48;100.00;100456.47;5100482;28;20093;-89
2023/12/21 01:58:41;;;;;;;42.50;15.13;;;;;;;7.49;100.00;100465.44;5099096;28;20467;-89
2023/12/21 02:01:07;;;;;;;46.63;15.73;;;;;;;7.49;100.00;100460.84;5117019;28;20070;-89
2023/12/21 02:03:33;;;;;;;41.80;16.70;;;;;;;7.48;100.00;100461.88;5099463;28;20463;-89
2023/12/21 02:05:59;;;;;;;35.80;14.25;;;;;;;7.53;100.00;100455.88;5098684;28;20028;-88
2023/12/21 02:08:25;;;;;;;36.05;14.32;;;;;;;7.50;100.00;100465.22;5098756;28;20044;-88
2023/12/21 02:10:56;;;;;;;48.83;15.73;;;;;;;7.49;100.00;100460.84;5117164;28;20081;-88
2023/12/21 02:13:24;;;;;;;39.90;15.37;;;;;;;7.51;100.00;100469.59;5099651;28;20031;-88
2023/12/21 02:15:52;;;;;;;47.55;15.50;;;;;;;7.48;100.00;100464.56;5081941;28;20032;-88
2023/12/21 02:18:17;;;;;;;43.63;16.67;;;;;;;7.49;100.00;100471.66;5099604;28;20028;-89
2023/12/21 02:20:43;;;;;;;49.57;14.97;;;;;;;7.48;100.00;100450.25;5098846;28;20378;-88
2023/12/21 02:23:11;;;;;;;42.50;17.45;;;;;;;7.47;100.00;100457.53;5098499;28;20042;-88
2023/12/21 02:25:40;;;;;;;42.08;14.77;;;;;;;7.48;100.00;100456.47;5117014;28;20027;-88
2023/12/21 02:28:07;;;;;;;43.17;14.68;;;;;;;7.48;100.00;100442.97;5099599;28;20043;-88
2023/12/21 02:30:35;;;;;;;41.08;14.13;;;;;;;7.50;100.00;100435.53;5082687;28;20031;-89
2023/12/21 02:33:01;;;;;;;40.80;14.50;;;;;;;7.47;100.00;100435.94;5082498;28;20051;-89
2023/12/21 02:35:26;;;;;;;48.33;15.02;;;;;;;7.48;100.00;100415.97;5097592;28;20490;-89
2023/12/21 02:37:51;;;;;;;45.77;14.30;;;;;;;7.47;100.00;100411.66;5099629;28;20023;-89
2023/12/21 02:40:17;;;;;;;41.25;15.18;;;;;;;7.48;100.00;100425.97;5116833;28;20429;-89
2023/12/21 02:42:42;;;;;;;40.03;13.00;;;;;;;7.48;100.00;100410.59;5098674;28;20532;-89
2023/12/21 02:45:11;;;;;;;48.27;15.37;;;;;;;7.50;100.00;100400.44;5098983;28;20054;-88
2023/12/21 02:47:36;;;;;;;47.70;13.90;;;;;;;7.49;100.00;100411.44;5081947;28;20024;-89
2023/12/21 02:50:02;;;;;;;44.17;13.57;;;;;;;7.47;100.00;100411.66;5082405;28;20521;-89
2023/12/21 02:52:27;;;;;;;46.88;14.10;;;;;;;7.49;100.00;100401.47;5081648;28;20035;-89
2023/12/21 02:54:55;;;;;;;35.20;11.98;;;;;;;7.49;100.00;100404.16;5098598;28;20472;-88
2023/12/21 02:57:20;;;;;;;46.50;14.48;;;;;;;7.49;100.00;100403.34;5082706;28;20036;-89
2023/12/21 02:59:46;;;;;;;43.75;11.60;;;;;;;7.49;100.00;100385.25;5097844;28;20023;-88
2023/12/21 03:02:11;;;;;;;39.53;12.70;;;;;;;7.52;100.00;100390.25;5098209;28;20024;-88
2023/12/21 03:04:40;;;;;;;44.77;14.23;;;;;;;7.49;100.00;100387.97;5116284;28;20043;-88
2023/12/21 03:07:05;;;;;;;37.10;12.00;;;;;;;7.50;100.00;100384.22;5098188;28;20027;-88
2023/12/21 03:09:31;;;;;;;46.80;11.63;;;;;;;7.50;100.00;100381.53;5098463;28;20058;-89
2023/12/21 03:11:57;;;;;;;40.78;11.57;;;;;;;7.51;100.00;100377.81;5098838;28;20027;-89
2023/12/21 03:14:22;;;;;;;36.07;10.93;;;;;;;7.50;100.00;100378.84;5098441;28;20084;-88
2023/12/21 03:16:51;;;;;;;35.35;10.95;;;;;;;7.50;100.00;100351.84;5116635;28;20031;-89
2023/12/21 03:19:18;;;;;;;37.40;10.83;;;;;;;7.50;100.00;100334.78;5098402;28;20049;-89
2023/12/21 03:21:44;;;;;;;38.45;10.32;;;;;;;7.51;100.00;100315.72;5116640;28;20349;-89
2023/12/21 03:24:09;;;;;;;37.63;8.87;;;;;;;7.54;100.00;100312.59;5097389;28;20080;-88
2023/12/21 03:26:35;;;;;;;33.85;8.57;;;;;;;7.54;100.00;100300.94;5080189;28;20032;-88
2023/12/21 03:29:00;;;;;;;37.30;9.13;;;;;;;7.52;100.00;100287.66;5080484;28;20032;-88
2023/12/21 03:31:28;;;;;;;37.90;9.87;;;;;;;7.55;100.00;100292.63;5063472;28;20036;-89
2023/12/21 03:33:53;;;;;;;40.03;10.48;;;;;;;7.53;100.00;100293.91;5063591;28;20119;-88
2023/12/21 03:36:21;;;;;;;35.93;10.23;;;;;;;7.54;100.00;100291.00;5096838;28;20115;-89
2023/12/21 03:38:49;;;;;;;45.28;8.90;;;;;;;7.58;100.00;100290.56;5097101;28;20379;-89
2023/12/21 03:41:14;;;;;;;32.78;8.80;;;;;;;7.57;100.00;100281.63;5115309;28;20032;-88
2023/12/21 03:43:40;;;;;;;38.53;10.73;;;;;;;7.54;100.00;100263.16;5097611;28;20036;-89
2023/12/21 03:46:09;;;;;;;35.67;8.33;;;;;;;7.60;100.00;100275.81;5097325;28;20075;-89
2023/12/21 03:48:37;;;;;;;34.80;9.75;;;;;;;7.57;100.00;100270.00;5096605;28;20036;-89
2023/12/21 03:51:19;;;;;;;38.50;9.98;;;;;;;7.56;100.00;100266.50;5096637;28;20038;-88
2023/12/21 03:53:44;;;;;;;42.10;9.90;;;;;;;7.58;100.00;100247.38;5096696;28;20134;-89
2023/12/21 03:56:09;;;;;;;32.30;8.77;;;;;;;7.57;100.00;100245.72;5114794;28;20039;-89
2023/12/21 03:58:38;;;;;;;40.03;10.07;;;;;;;7.59;100.00;100246.31;5079876;28;20031;-89
2023/12/21 04:01:04;;;;;;;36.72;10.27;;;;;;;7.60;100.00;100231.78;5062919;28;20077;-84
2023/12/21 04:03:29;;;;;;;43.73;11.00;;;;;;;7.54;100.00;100230.75;5096680;28;20494;-84
2023/12/21 04:05:55;;;;;;;43.72;11.20;;;;;;;7.56;100.00;100226.00;5096547;28;20379;-84
2023/12/21 04:08:21;;;;;;;51.33;12.97;;;;;;;7.56;100.00;100220.59;5114985;28;20032;-84
2023/12/21 04:10:47;;;;;;;43.50;12.27;;;;;;;7.59;100.00;100230.13;5115005;28;20375;-83
2023/12/21 04:13:12;;;;;;;55.33;12.23;;;;;;;7.54;100.00;100220.81;5096693;28;20118;-84
2023/12/21 04:15:38;;;;;;;48.83;12.52;;;;;;;7.57;100.00;100230.34;5096817;28;20038;-83
2023/12/21 04:18:03;;;;;;;49.57;11.40;;;;;;;7.54;100.00;100206.47;5114407;28;20040;-83
2023/12/21 04:20:29;;;;;;;51.67;12.73;;;;;;;7.55;100.00;100202.72;5096240;28;20058;-83
2023/12/21 04:22:54;;;;;;;47.10;12.77;;;;;;;7.59;100.00;100211.22;5079421;28;20040;-83
2023/12/21 04:25:21;;;;;;;43.77;12.73;;;;;;;7.54;100.00;100193.81;5062849;28;20039;-83
2023/12/21 04:27:46;;;;;;;45.78;14.88;;;;;;;7.61;100.00;100198.38;5096822;28;20023;-83
2023/12/21 04:30:12;;;;;;;47.40;13.23;;;;;;;7.63;100.00;100194.41;5079368;28;20122;-84
2023/12/21 04:32:37;;;;;;;51.20;15.15;;;;;;;7.58;100.00;100193.38;5079002;28;20544;-83
2023/12/21 04:35:03;;;;;;;53.17;14.10;;;;;;;7.59;100.00;100179.69;5096581;28;20028;-83
2023/12/21 04:37:29;;;;;;;49.42;14.85;;;;;;;7.62;100.00;100170.31;5096178;28;20031;-83
2023/12/21 04:39:54;;;;;;;45.83;13.47;;;;;;;7.64;100.00;100162.84;5096209;28;20062;-83
2023/12/21 04:42:19;;;;;;;47.80;13.40;;;;;;;7.67;100.00;100170.50;5114957;28;20106;-84
2023/12/21 04:44:45;;;;;;;48.47;13.93;;;;;;;7.66;100.00;100152.63;5062206;28;20458;-84
2023/12/21 04:47:11;;;;;;;45.07;13.90;;;;;;;7.69;100.00;100144.97;5079968;28;20040;-84
2023/12/21 04:49:36;;;;;;;45.83;14.43;;;;;;;7.69;100.00;100161.16;5096247;28;20028;-84
2023/12/21 04:52:02;;;;;;;43.07;15.20;;;;;;;7.71;100.00;100140.16;5114496;28;20032;-84
2023/12/21 04:54:27;;;;;;;41.28;14.98;;;;;;;7.72;100.00;100139.13;5113858;28;20376;-84
2023/12/21 04:56:53;;;;;;;39.97;11.70;;;;;;;7.76;100.00;100114.41;5095614;28;20027;-83
2023/12/21 04:59:18;;;;;;;33.87;12.27;;;;;;;7.72;100.00;100116.69;5096247;28;20487;-83
2023/12/21 05:01:49;;;;;;;41.80;12.67;;;;;;;7.77;100.00;100102.56;5114192;28;20028;-83
2023/12/21 05:04:14;;;;;;;28.55;10.35;;;;;;;7.80;100.00;100107.53;5114182;28;20039;-84
2023/12/21 05:06:40;;;;;;;23.97;9.20;;;;;;;7.81;100.00;100110.00;5096232;28;20028;-84
2023/12/21 05:09:06;;;;;;;30.27;10.43;;;;;;;7.82;100.00;100087.34;5095719;28;20477;-84
2023/12/21 05:11:31;;;;;;;33.50;10.43;;;;;;;7.78;100.00;100088.00;5095819;28;20460;-84
2023/12/21 05:13:57;;;;;;;30.40;10.63;;;;;;;7.79;100.00;100093.16;5095497;28;20020;-83
2023/12/21 05:16:22;;;;;;;30.70;9.82;;;;;;;7.83;100.00;100082.78;5095803;28;20024;-84
2023/12/21 05:18:49;;;;;;;26.13;8.80;;;;;;;7.85;100.00;100091.50;5095540;28;20028;-84
2023/12/21 05:21:15;;;;;;;36.58;8.93;;;;;;;7.83;100.00;100097.09;5079481;28;20039;-84
2023/12/21 05:23:40;;;;;;;30.53;8.83;;;;;;;7.92;100.00;100088.75;5095906;28;20535;-83
2023/12/21 05:26:13;;;;;;;19.60;7.23;;;;;;;7.93;100.00;100093.09;5078717;28;20436;-83
2023/12/21 05:28:39;;;;;;;27.52;7.22;;;;;;;7.89;100.00;100109.75;5113855;28;20352;-83
2023/12/21 05:31:08;;;;;;;24.92;8.52;;;;;;;7.93;100.00;100057.97;5095466;28;20076;-83
2023/12/21 05:33:34;;;;;;;28.95;7.47;;;;;;;7.88;100.00;100055.94;5079177;28;20031;-84
2023/12/21 05:36:00;;;;;;;30.42;7.00;;;;;;;7.93;100.00;100057.97;5095466;28;20028;-84
2023/12/21 05:38:25;;;;;;;23.63;6.50;;;;;;;8.01;100.00;100036.94;5095913;28;20110;-84
2023/12/21 05:40:51;;;;;;;20.60;6.97;;;;;;;8.01;100.00;100030.72;5096344;28;20127;-83
2023/12/21 05:43:17;;;;;;;16.20;6.17;;;;;;;8.10;100.00;100042.09;5114139;28;20032;-84
2023/12/21 05:45:42;;;;;;;19.92;5.93;;;;;;;8.10;100.00;100040.22;5095533;28;20605;-83
2023/12/21 05:48:07;;;;;;;19.87;5.53;;;;;;;8.14;100.00;100063.06;5078646;28;20067;-83
2023/12/21 05:50:33;;;;;;;18.10;4.90;;;;;;;8.22;100.00;100075.47;5114232;28;20098;-84
2023/12/21 05:52:58;;;;;;;14.03;4.40;;;;;;;8.26;100.00;100042.38;5114162;28;20111;-83
2023/12/21 05:55:24;;;;;;;16.55;4.93;;;;;;;8.32;100.00;100127.16;5096248;28;20250;-84
2023/12/21 05:57:49;;;;;;;19.60;5.53;;;;;;;8.27;100.00;100037.81;5095754;28;20490;-83
2023/12/21 06:00:15;;;;;;;16.43;4.30;;;;;;;8.24;100.00;100058.00;5096718;28;20036;-88
2023/12/21 06:02:40;;;;;;;15.85;4.78;;;;;;;8.30;100.00;100044.63;5079213;28;20455;-83
2023/12/21 06:05:06;;;;;;;18.57;6.43;;;;;;;8.25;100.00;100059.66;5113995;28;20026;-84
2023/12/21 06:07:31;;;;;;;16.57;4.87;;;;;;;8.18;100.00;100069.69;5095727;28;20444;-83
2023/12/21 06:09:57;;;;;;;13.20;5.13;;;;;;;8.17;100.00;100049.09;5097414;28;20103;-84
2023/12/21 06:12:23;;;;;;;20.63;5.77;;;;;;;8.12;100.00;100053.50;5081781;28;20049;-84
2023/12/21 06:14:48;;;;;;;27.77;7.23;;;;;;;8.10;100.00;100031.28;5117170;28;20032;-84
2023/12/21 06:17:14;;;;;;;19.17;6.90;;;;;;;8.11;100.00;100032.94;5099217;28;20034;-84
2023/12/21 06:19:43;;;;;;;23.83;8.57;;;;;;;8.03;100.00;100018.66;5098676;28;20039;-83
2023/12/21 06:22:08;;;;;;;24.13;10.05;;;;;;;8.06;100.00;100006.56;5099944;28;20376;-84
2023/12/21 06:24:34;;;;;;;24.13;8.33;;;;;;;8.02;100.00;100006.19;5116842;28;20032;-84
2023/12/21 06:26:59;;;;;;;20.50;8.63;;;;;;;8.03;100.00;99977.28;5082362;28;20042;-83
2023/12/21 06:29:25;;;;;;;20.70;8.30;;;;;;;8.04;100.00;99979.78;5115473;28;20031;-83
2023/12/21 06:31:50;;;;;;;21.40;9.03;;;;;;;8.03;100.00;99986.25;5098123;28;20031;-83
2023/12/21 06:34:16;;;;;;;27.20;9.40;;;;;;;8.02;100.00;100006.19;5098317;28;20084;-83
2023/12/21 06:36:41;;;;;;;25.90;9.52;;;;;;;8.01;100.00;100012.63;5098331;28;20265;-83
2023/12/21 06:39:07;;;;;;;29.03;8.67;;;;;;;8.01;100.00;100014.50;5098478;28;20032;-83
2023/12/21 06:41:32;;;;;;;24.38;8.48;;;;;;;8.01;100.00;100001.81;5116452;28;20023;-83
2023/12/21 06:43:58;;;;;;;26.40;9.40;;;;;;;8.02;100.00;99986.47;5116535;28;20046;-86
2023/12/21 06:46:24;;;;;;;25.05;8.15;;;;;;;7.97;100.00;99989.81;5118099;28;20044;-84
2023/12/21 06:48:56;;;;;;;25.57;8.03;;;;;;;8.04;100.00;99995.16;5116885;28;20499;-84
2023/12/21 06:51:22;;;;;;;27.23;7.22;;;;;;;8.02;100.00;99976.47;5097936;28;20028;-84
2023/12/21 06:53:47;;;;;;;23.10;7.37;;;;;;;7.98;100.00;99977.94;5081995;28;20031;-83
2023/12/21 06:56:13;;;;;;;24.57;7.47;;;;;;;8.02;100.00;99968.38;5098766;28;20031;-83
2023/12/21 06:58:41;;;;;;;17.83;6.30;;;;;;;8.03;100.00;99950.28;5098648;28;20444;-83
2023/12/21 07:01:06;;;;;;;18.38;5.97;;;;;;;8.06;100.00;99933.63;5097798;28;20035;-83
2023/12/21 07:03:38;;;;;;;18.65;6.38;;;;;;;8.03;100.00;99934.06;5081385;28;20038;-84
2023/12/21 07:06:04;;;;;;;21.08;6.80;;;;;;;8.01;100.00;99938.88;5097599;28;20479;-83
2023/12/21 07:08:29;;;;;;;15.30;5.27;;;;;;;8.01;100.00;99955.09;5081188;28;20034;-83
2023/12/21 07:10:55;;;;;;;18.10;5.33;;;;;;;8.00;100.00;99919.16;5115630;28;20415;-83
2023/12/21 07:13:20;;;;;;;18.13;4.70;;;;;;;8.03;100.00;99910.59;5080403;28;20027;-83
2023/12/21 07:15:46;;;;;;;18.23;6.05;;;;;;;8.02;100.00;99910.81;5115557;28;20027;-83
2023/12/21 07:18:11;;;;;;;23.77;6.27;;;;;;;8.03;100.00;99924.09;5080403;28;20088;-83
2023/12/21 07:20:36;;;;;;;20.97;6.40;;;;;;;8.02;100.00;99908.94;5080007;28;20035;-83
2023/12/21 07:23:02;;;;;;;24.00;6.47;;;;;;;8.06;100.00;99918.25;5080430;28;20444;-83
2023/12/21 07:25:27;;;;;;;14.40;5.40;;;;;;;8.03;100.00;99910.59;5115041;28;20322;-83
2023/12/21 07:27:54;;;;;;;22.43;5.93;;;;;;;8.05;100.00;99892.28;5079994;28;20032;-83
2023/12/21 07:30:19;;;;;;;19.67;5.60;;;;;;;8.02;100.00;99878.41;5115298;28;20177;-83
2023/12/21 07:32:45;;;;;;;15.50;5.50;;;;;;;8.05;100.00;99880.66;5081317;28;20118;-83
2023/12/21 07:35:11;;;;;;;17.30;5.00;;;;;;;8.02;100.00;99881.91;5097315;28;20474;-83
2023/12/21 07:37:36;;;;;;;20.05;4.85;;;;;;;8.07;100.00;99875.84;5097698;28;20043;-83
2023/12/21 07:40:03;;;;;;;17.03;5.13;;;;;;;8.08;100.00;99869.41;5097214;28;20032;-83
2023/12/21 07:42:31;;;;;;;13.23;4.68;;;;;;;8.13;100.00;99853.34;5115303;28;20027;-83
2023/12/21 07:44:57;;;;;;;13.27;4.20;;;;;;;8.20;100.00;99845.19;5096688;28;20053;-83
2023/12/21 07:47:22;;;;;;;14.87;4.43;;;;;;;8.20;100.00;99850.59;5097256;28;20442;-82
2023/12/21 07:49:48;;;;;;;15.30;4.13;;;;;;;8.24;100.00;99841.78;5097584;28;20093;-82
2023/12/21 07:52:13;;;;;;;20.25;5.13;;;;;;;8.25;100.00;99866.94;5096788;28;20066;-82
2023/12/21 07:54:39;;;;;;;10.80;4.20;;;;;;;8.23;100.00;99864.44;5096950;28;20127;-82
2023/12/21 07:57:04;;;;;;;9.07;4.00;;;;;;;8.25;100.00;99848.00;5098272;28;20035;-82
2023/12/21 07:59:29;;;;;;;13.40;4.60;;;;;;;8.25;100.00;99851.56;5097480;28;20063;-82
2023/12/21 08:01:55;;;;;;;13.03;5.60;;;;;;;8.23;100.00;99848.25;5115305;28;20427;-82
2023/12/21 08:04:20;;;;;;;21.40;5.07;;;;;;;8.24;100.00;99854.50;5096829;28;20027;-82
2023/12/21 08:06:46;;;;;;;13.27;4.77;;;;;;;8.27;100.00;99843.22;5096841;28;20114;-82
2023/12/21 08:09:11;;;;;;;19.37;5.80;;;;;;;8.24;100.00;99843.69;5114801;28;20106;-82
2023/12/21 08:11:37;;;;;;;16.03;5.27;;;;;;;8.25;100.00;99839.91;5096886;28;20072;-82
2023/12/21 08:14:02;;;;;;;21.20;5.63;;;;;;;8.23;100.00;99859.06;5096380;28;20035;-82
2023/12/21 08:16:27;;;;;;;12.45;5.25;;;;;;;8.25;100.00;99840.75;5114733;28;20420;-82
2023/12/21 08:18:53;;;;;;;16.43;4.70;;;;;;;8.22;100.00;99854.72;5114433;28;20038;-82
2023/12/21 08:21:19;;;;;;;11.13;4.20;;;;;;;8.26;100.00;99836.16;5114587;28;20027;-82
2023/12/21 08:23:50;;;;;;;14.23;6.23;;;;;;;8.30;100.00;99817.59;5062797;28;20036;-82
2023/12/21 08:26:16;;;;;;;16.23;5.57;;;;;;;8.26;100.00;99828.88;5096205;28;20027;-83
2023/12/21 08:28:42;;;;;;;20.00;6.10;;;;;;;8.27;100.00;99797.28;5114510;28;20034;-82
2023/12/21 08:31:08;;;;;;;13.63;5.70;;;;;;;8.28;100.00;99822.44;5096638;28;20027;-82
2023/12/21 08:33:38;;;;;;;14.20;5.40;;;;;;;8.29;100.00;99810.56;5078991;28;20031;-82
2023/12/21 08:36:04;;;;;;;13.33;6.23;;;;;;;8.32;100.00;99829.03;5080897;28;20452;-82
2023/12/21 08:38:29;;;;;;;18.25;6.10;;;;;;;8.32;100.00;99820.94;5079759;28;20122;-82
2023/12/21 08:40:55;;;;;;;22.97;6.77;;;;;;;8.32;100.00;99826.34;5114234;28;20042;-82
2023/12/21 08:43:20;;;;;;;15.18;5.65;;;;;;;8.32;100.00;99823.63;5079200;28;20096;-82
2023/12/21 08:45:45;;;;;;;15.47;5.80;;;;;;;8.34;100.00;99813.41;5094034;28;20682;-82
2023/12/21 08:48:11;;;;;;;17.47;6.33;;;;;;;8.33;100.00;99823.41;5096468;28;20051;-82
2023/12/21 08:50:42;;;;;;;19.13;6.17;;;;;;;8.39;100.00;99827.09;5096416;28;20467;-82
2023/12/21 08:56:42;;;;;;;15.57;5.72;;;;;;;8.40;100.00;99807.94;5114164;28;20031;-82
2023/12/21 08:59:07;;;;;;;18.58;5.93;;;;;;;8.43;100.00;99769.63;5114016;28;20071;-80
2023/12/21 09:01:32;;;;;;;19.20;6.63;;;;;;;8.40;100.00;99785.47;5096918;28;20472;-81
2023/12/21 09:03:58;;;;;;;18.77;6.37;;;;;;;8.46;100.00;99778.38;5114099;28;20108;-82
2023/12/21 09:06:24;;;;;;;16.60;6.43;;;;;;;8.40;100.00;99769.25;5113944;28;20028;-82
2023/12/21 09:09:08;;;;;;;17.63;7.57;;;;;;;8.40;100.00;99791.72;5114580;28;20035;-82
2023/12/21 09:19:06;;;;;;;13.57;5.57;;;;;;;8.48;100.00;99785.19;5112672;28;20063;-82
2023/12/21 09:25:46;;;;;;;18.10;6.22;;;;;;;8.51;100.00;99797.44;5114001;28;20081;-83
2023/12/21 09:35:45;;;;;;;13.25;4.22;;;;;;;8.54;100.00;99751.84;5114108;28;20364;-82
2023/12/21 09:42:00;;;;;;;11.98;3.67;;;;;;;8.55;100.00;99731.88;5113637;28;20407;-82
2023/12/21 09:47:48;;;;;;;16.85;3.15;;;;;;;8.60;100.00;99788.78;5116433;28;20481;-82
2023/12/21 09:50:16;;;;;;;12.65;2.35;;;;;;;8.61;100.00;99749.06;5117001;28;20050;-82
2023/12/21 09:52:43;;;;;;;7.93;2.00;;;;;;;8.68;100.00;99779.53;5099462;28;20031;-82
2023/12/21 09:55:10;;;;;;;15.70;2.45;;;;;;;8.67;100.00;99723.00;5099012;28;20034;-82
2023/12/21 09:57:39;;;;;;;12.27;2.60;;;;;;;8.73;100.00;99727.47;5116934;28;20483;-82
2023/12/21 10:00:05;;;;;;;9.38;2.00;;;;;;;8.75;100.00;99746.97;5099145;28;20030;-82
2023/12/21 10:02:31;;;;;;;13.30;2.53;;;;;;;8.78;100.00;99720.31;5098825;28;20032;-82
2023/12/21 12:07:28;;;;;;;7.03;1.17;;;;;;;10.11;100.00;99599.78;5114954;28;20069;-82
2023/12/21 12:09:54;;;;;;;5.53;1.00;;;;;;;10.20;100.00;99605.59;5097045;28;20039;-82
2023/12/21 12:12:19;;;;;;;4.80;1.00;;;;;;;10.51;100.00;99625.16;5097152;28;20050;-82
2023/12/21 12:21:37;;;;;;;4.90;0.85;;;;;;;10.16;100.00;99618.00;5114487;28;20118;-83
2023/12/21 12:24:02;;;;;;;6.17;0.90;;;;;;;9.92;100.00;99623.53;5096335;28;20063;-82
2023/12/21 12:35:07;;;;;;;6.63;1.10;;;;;;;9.45;100.00;99602.78;5113228;28;20036;-82
2023/12/21 14:14:21;;;;;;;8.10;1.40;;;;;;;8.89;100.00;99615.91;5116870;28;20043;-82
2023/12/21 14:16:46;;;;;;;8.40;1.40;;;;;;;9.01;100.00;99647.56;5099504;28;20110;-82
2023/12/21 14:19:12;;;;;;;8.13;1.00;;;;;;;9.07;100.00;99620.38;5082580;28;20135;-82
2023/12/21 14:39:26;;;;;;;14.88;1.45;;;;;;;9.40;100.00;99635.16;5116045;28;20042;-82
2023/12/21 14:52:13;;;;;;;10.45;1.52;;;;;;;9.66;100.00;99663.63;5115832;28;20467;-82
2023/12/21 14:58:50;;;;;;;13.00;1.50;;;;;;;9.75;100.00;99600.97;5116320;28;20043;-82
2023/12/21 15:04:39;;;;;;;9.60;1.48;;;;;;;9.77;100.00;99591.53;5116031;28;20516;-84
2023/12/21 15:07:05;;;;;;;13.90;1.38;;;;;;;9.82;100.00;99572.66;5098244;28;20526;-83
2023/12/21 15:09:30;;;;;;;10.37;1.20;;;;;;;9.75;100.00;99607.19;5097628;28;20056;-84
2023/12/21 15:11:55;;;;;;;9.43;2.00;;;;;;;9.71;100.00;99621.47;5116185;28;20032;-85
2023/12/21 15:14:21;;;;;;;12.83;1.73;;;;;;;9.75;100.00;99595.53;5098038;28;20035;-84
2023/12/21 15:16:46;;;;;;;11.45;1.77;;;;;;;9.75;100.00;99603.66;5116401;28;20115;-84
2023/12/21 15:19:12;;;;;;;12.27;1.73;;;;;;;9.75;100.00;99645.13;5098151;28;20422;-84
2023/12/21 15:21:40;;;;;;;16.67;1.63;;;;;;;9.78;100.00;99651.94;5080711;28;20066;-84
2023/12/21 15:24:06;;;;;;;8.45;1.60;;;;;;;9.76;100.00;99662.22;5080217;28;20027;-84
2023/12/21 15:26:31;;;;;;;14.90;1.93;;;;;;;9.70;100.00;99672.09;5097803;28;20123;-84
2023/12/21 15:28:57;;;;;;;11.03;1.83;;;;;;;9.69;100.00;99646.06;5097341;28;20023;-84
2023/12/21 15:31:22;;;;;;;10.75;2.03;;;;;;;9.72;100.00;99652.91;5080884;28;20089;-85
2023/12/21 15:33:48;;;;;;;12.83;2.60;;;;;;;9.70;100.00;99663.97;5097337;28;20032;-85
2023/12/21 15:36:15;;;;;;;17.70;2.40;;;;;;;9.71;100.00;99681.84;5115248;28;20463;-84
2023/12/21 15:38:41;;;;;;;17.42;2.10;;;;;;;9.38;100.00;99650.00;5097417;28;20031;-84
2023/12/21 15:41:20;;;;;;;15.37;1.80;;;;;;;9.08;100.00;99670.72;5079875;28;20036;-84
2023/12/21 15:47:50;;;;;;;11.50;1.45;;;;;;;8.95;100.00;99679.88;5115173;28;20043;-84
2023/12/21 16:00:29;;;;;;;12.18;1.85;;;;;;;8.68;100.00;99684.06;5115660;28;20104;-84
2023/12/21 16:02:55;;;;;;;16.00;1.98;;;;;;;8.63;100.00;99683.94;5079750;28;20467;-85
2023/12/21 16:05:23;;;;;;;12.20;1.42;;;;;;;8.49;100.00;99659.81;5096787;28;20520;-82
2023/12/21 16:07:48;;;;;;;9.60;1.60;;;;;;;8.43;100.00;99642.59;5096168;28;20063;-82
2023/12/21 16:11:07;;;;;;;12.93;1.90;;;;;;;8.39;100.00;99671.13;5096683;28;20051;-83
2023/12/21 16:31:29;;;;;;;14.02;2.28;;;;;;;8.25;100.00;99721.84;5114657;28;20035;-83
2023/12/21 16:33:54;;;;;;;20.35;2.65;;;;;;;8.09;100.00;99684.66;5114205;28;20483;-83
2023/12/21 16:36:19;;;;;;;15.13;2.08;;;;;;;8.03;100.00;99707.16;5079261;28;20032;-83
2023/12/21 16:42:14;;;;;;;16.08;1.80;;;;;;;8.03;100.00;99682.84;5113919;28;20471;-83
2023/12/21 16:48:32;;;;;;;15.60;1.67;;;;;;;8.26;100.00;99684.84;5114420;28;20076;-83
2023/12/21 17:57:07;;;;;;;12.98;1.75;;;;;;;8.18;100.00;99799.47;5113349;28;20035;-83
2023/12/21 18:08:37;;;;;;;9.68;1.60;;;;;;;8.32;100.00;99804.72;5116790;28;20032;-83